Latest Weather Observations for Noonamah

IDD60901

Issued at 12:31 pm CST Tuesday 3 May 2016 (issued every 10 minutes, with the page automatically refreshed every 10 minutes)

About weather observations | Map of Darwin area stations | Latest observations for Darwin area | Other Formats
Station Details ID: 014314 Name: NOONAMAH AIRSTRIP Lat: -12.61 Lon: 131.05 Height: 17.5 m
Data from the previous 72 hours. | See also: Recent months at Noonamah
Date/Time
CST
Tmp

°C
App
Tmp
°C
Dew
Point
°C
Rel
Hum
%
Delta-T

°C
Wind Press
QNH
hPa
Press
MSL
hPa
Rain
since
9 am
mm
Dir
 
Spd
km/h
Gust
km/h
Spd
kts
Gust
kts
03/12:30pm 32.0 36.8 25.1 67 4.9 E 9 15 5 8 1010.8 1010.7 0.0
03/12:00pm 32.0 35.8 24.1 63 5.5 ENE 11 19 6 10 1011.3 1011.2 0.0
03/11:30am 32.0 36.0 23.8 62 5.7 ENE 9 15 5 8 1011.7 1011.6 0.0
03/11:00am 31.9 35.5 23.7 62 5.7 E 11 19 6 10 1012.2 1012.1 0.0
03/10:30am 31.1 34.7 23.7 64 5.1 ESE 11 15 6 8 1012.5 1012.4 0.0
03/10:00am 30.3 34.9 24.2 70 4.2 E 7 13 4 7 1012.5 1012.4 0.0
03/09:30am 29.3 33.3 23.7 72 3.9 ESE 9 15 5 8 1012.3 1012.2 0.0
03/09:00am 28.2 32.5 23.6 76 3.2 SE 7 13 4 7 1011.9 1011.8 0.0
03/08:30am 27.4 31.3 23.6 80 2.6 E 9 15 5 8 1011.8 1011.7 0.0
03/08:00am 25.6 29.9 23.3 87 1.6 E 6 9 3 5 1011.5 1011.4 0.0
03/07:30am 24.3 28.9 23.1 93 0.8 E 4 6 2 3 1011.6 1011.5 0.0
03/07:00am 24.0 28.0 22.8 93 0.8 ESE 6 7 3 4 1011.5 1011.4 0.0
03/06:30am 24.1 28.6 22.9 93 0.8 ESE 4 7 2 4 1011.2 1011.1 0.0
03/06:00am 24.2 27.9 22.6 91 1.1 SE 7 11 4 6 1010.6 1010.5 0.0
03/05:30am 24.2 28.2 22.8 92 0.9 SE 6 7 3 4 1010.4 1010.3 0.0
03/05:00am 24.1 28.4 22.7 92 0.9 ESE 4 6 2 3 1010.2 1010.1 0.0
03/04:30am 24.0 28.2 22.4 91 1.1 ESE 4 6 2 3 1010.0 1009.9 0.0
03/04:00am 24.1 28.6 22.2 89 1.3 SE 2 4 1 2 1010.1 1010.0 0.0
03/03:30am 24.2 28.2 22.1 88 1.4 SE 4 6 2 3 1010.1 1010.0 0.0
03/03:00am 24.3 28.0 22.2 88 1.4 SE 6 7 3 4 1010.4 1010.3 0.0
03/02:30am 24.5 28.3 22.4 88 1.4 SSE 6 7 3 4 1010.5 1010.4 0.0
03/02:00am 24.8 28.8 22.7 88 1.4 SE 6 6 3 3 1010.9 1010.8 0.0
03/01:30am 25.0 28.9 22.5 86 1.7 SSE 6 6 3 3 1011.2 1011.1 0.0
03/01:00am 25.4 29.2 22.7 85 1.8 SE 7 11 4 6 1011.7 1011.6 0.0
03/12:30am 25.8 29.8 23.1 85 1.8 SE 7 9 4 5 1012.2 1012.1 0.0
03/12:00am 26.7 29.6 24.5 88 1.5 SE 17 32 9 17 1012.7 1012.6 0.0
 
Date/Time
CST
Tmp

°C
App
Tmp
°C
Dew
Point
°C
Rel
Hum
%
Delta-T

°C
Wind Press
QNH
hPa
Press
MSL
hPa
Rain
since
9 am
mm
Dir
 
Spd
km/h
Gust
km/h
Spd
kts
Gust
kts
02/11:30pm 27.0 32.7 25.6 92 1.0 ESE 6 6 3 3 1012.3 1012.2 0.0
02/11:00pm 27.1 32.9 25.7 92 1.0 ESE 6 6 3 3 1012.4 1012.3 0.0
02/10:30pm 27.4 33.9 26.2 93 0.9 SE 4 6 2 3 1012.5 1012.4 0.0
02/10:00pm 27.6 34.8 26.2 92 1.0 CALM 0 0 0 0 1012.3 1012.2 0.0
02/09:30pm 27.7 34.9 26.1 91 1.1 CALM 0 0 0 0 1012.7 1012.6 0.0
02/09:00pm 27.9 35.1 26.1 90 1.3 CALM 0 0 0 0 1012.4 1012.3 0.0
02/08:30pm 28.1 35.3 26.1 89 1.4 CALM 0 0 0 0 1012.0 1011.9 0.0
02/08:00pm 28.2 35.0 25.6 86 1.8 CALM 0 0 0 0 1011.5 1011.4 0.0
02/07:30pm 28.2 35.2 25.8 87 1.7 CALM 0 0 0 0 1011.2 1011.1 0.0
02/07:00pm 28.6 35.3 25.4 83 2.3 CALM 0 0 0 0 1010.8 1010.7 0.0
02/06:30pm 29.2 35.1 25.4 80 2.7 ENE 4 4 2 2 1010.5 1010.4 0.0
02/06:00pm 29.4 35.0 25.4 79 2.8 NNE 6 7 3 4 1009.8 1009.7 0.0
02/05:30pm 29.8 35.2 25.1 76 3.3 NNE 6 9 3 5 1009.5 1009.4 0.0
02/05:00pm 30.4 35.0 24.8 72 3.9 NE 9 15 5 8 1009.2 1009.1 0.0
02/04:30pm 30.5 34.9 24.4 70 4.3 NE 9 13 5 7 1008.9 1008.7 0.0
02/04:00pm 30.4 34.3 24.3 70 4.3 NE 11 19 6 10 1008.7 1008.5 0.0
02/03:30pm 30.5 34.8 24.2 69 4.4 NE 9 17 5 9 1008.8 1008.6 0.0
02/03:00pm 30.6 34.5 24.3 69 4.4 NNE 11 17 6 9 1008.9 1008.7 0.0
02/02:30pm 30.7 35.1 24.4 69 4.4 NE 9 17 5 9 1009.4 1009.3 0.0
02/02:00pm 31.3 35.2 24.2 66 5.0 NE 11 19 6 10 1009.7 1009.6 0.0
02/01:30pm 31.9 34.6 23.4 60 5.9 ENE 15 28 8 15 1010.1 1010.0 0.0
02/01:00pm 32.5 36.0 24.8 64 5.4 ENE 15 22 8 12 1010.3 1010.2 0.0
02/12:30pm 31.4 34.7 24.5 67 4.8 ENE 15 24 8 13 1010.6 1010.5 0.0
02/12:00pm 30.6 34.3 24.5 70 4.3 E 13 20 7 11 1011.1 1011.0 0.0
02/11:30am 30.7 34.4 24.6 70 4.3 ENE 13 20 7 11 1011.4 1011.3 0.0
02/11:00am 31.0 34.6 24.4 68 4.6 ENE 13 24 7 13 1011.8 1011.7 0.0
02/10:30am 30.7 34.4 24.6 70 4.3 ENE 13 22 7 12 1012.0 1011.9 0.0
02/10:00am 30.0 33.5 24.2 71 4.0 E 13 20 7 11 1011.8 1011.7 0.0
02/09:30am 29.8 34.1 24.2 72 3.9 ESE 9 15 5 8 1011.8 1011.7 0.0
02/09:00am 28.1 32.4 24.3 80 2.6 SE 9 11 5 6 1011.7 1011.6 0.0
02/08:30am 26.9 31.7 24.5 87 1.7 ESE 7 11 4 6 1011.4 1011.3 0.0
02/08:00am 26.3 31.3 24.5 90 1.2 ESE 6 9 3 5 1011.3 1011.2 0.0
02/07:30am 25.6 30.5 24.4 93 0.8 SE 6 6 3 3 1011.0 1010.9 0.0
02/07:00am 25.4 30.6 24.2 93 0.8 S 4 6 2 3 1010.9 1010.8 0.0
02/06:30am 25.5 30.6 24.1 92 1.0 SSE 4 6 2 3 1010.1 1010.0 0.0
02/06:00am 25.5 30.3 24.1 92 1.0 E 6 7 3 4 1010.1 1010.0 0.0
02/05:30am 25.5 30.6 24.1 92 1.0 SE 4 4 2 2 1009.9 1009.8 0.0
02/05:00am 25.5 30.6 24.1 92 1.0 SE 4 4 2 2 1009.5 1009.4 0.0
02/04:30am 25.5 30.3 24.1 92 1.0 ESE 6 7 3 4 1009.1 1008.9 0.0
02/04:00am 25.6 30.8 24.2 92 1.0 SE 4 6 2 3 1009.4 1009.3 0.0
02/03:30am 25.7 31.2 24.1 91 1.1 SE 2 4 1 2 1009.5 1009.4 0.0
02/03:00am 25.6 31.1 24.0 91 1.1 E 2 4 1 2 1009.1 1008.9 0.0
02/02:30am 25.6 30.8 24.2 92 1.0 ENE 4 4 2 2 1009.3 1009.2 0.0
02/02:00am 25.7 30.8 24.1 91 1.1 ESE 4 6 2 3 1009.7 1009.6 0.0
02/01:30am 25.8 31.3 24.0 90 1.2 ESE 2 2 1 1 1010.3 1010.2 0.0
02/01:00am 25.8 31.4 24.2 91 1.1 ESE 2 6 1 3 1010.6 1010.5 0.0
02/12:30am 25.8 30.9 24.0 90 1.2 S 4 7 2 4 1010.7 1010.6 0.0
02/12:00am 25.9 30.9 23.9 89 1.4 S 4 6 2 3 1010.8 1010.7 0.0
 
Date/Time
CST
Tmp

°C
App
Tmp
°C
Dew
Point
°C
Rel
Hum
%
Delta-T

°C
Wind Press
QNH
hPa
Press
MSL
hPa
Rain
since
9 am
mm
Dir
 
Spd
km/h
Gust
km/h
Spd
kts
Gust
kts
01/11:30pm 26.1 31.6 24.1 89 1.4 S 2 6 1 3 1011.4 1011.3 0.0
01/11:00pm 26.0 30.7 23.9 88 1.4 ESE 6 9 3 5 1011.4 1011.3 0.0
01/10:30pm 26.2 30.7 23.7 86 1.7 SSE 6 11 3 6 1011.6 1011.5 0.0
01/10:00pm 26.7 31.1 23.8 84 2.0 ESE 7 11 4 6 1011.5 1011.4 0.0
01/09:30pm 27.2 30.8 23.7 81 2.4 E 11 17 6 9 1011.6 1011.5 0.0
01/09:00pm 28.4 32.0 24.4 79 2.8 E 13 20 7 11 1011.5 1011.4 0.0
01/08:30pm 28.1 33.5 25.1 84 2.1 ENE 6 7 3 4 1010.9 1010.8 0.0
01/08:00pm 28.1 33.4 24.3 80 2.6 NNE 4 6 2 3 1010.3 1010.2 0.0
01/07:30pm 28.3 33.6 24.3 79 2.8 NW 4 6 2 3 1009.7 1009.6 0.0
01/07:00pm 28.6 33.6 23.9 75 3.2 WNW 4 4 2 2 1009.6 1009.5 0.0
01/06:30pm 29.4 34.4 23.8 72 3.9 W 4 6 2 3 1009.2 1009.1 0.0
01/06:00pm 30.4 35.0 24.1 69 4.4 WSW 7 13 4 7 1009.1 1008.9 0.0
01/05:30pm 31.1 37.0 24.7 68 4.5 N 2 4 1 2 1008.5 1008.3 0.0
01/05:00pm 30.7 35.6 24.6 70 4.3 N 7 13 4 7 1007.8 1007.6 0.0
01/04:30pm 32.0 35.9 24.8 65 5.1 N 13 20 7 11 1007.6 1007.4 0.0
01/04:00pm 34.5 38.9 24.4 55 7.1 NE 9 20 5 11 1007.6 1007.4 0.0
01/03:30pm 34.9 39.2 23.6 52 7.9 NE 7 11 4 6 1007.7 1007.5 0.0
01/03:00pm 34.6 38.5 23.0 51 8.0 NE 7 13 4 7 1008.1 1007.9 0.0
01/02:30pm 34.6 38.2 23.0 51 8.0 ENE 9 15 5 8 1008.5 1008.3 0.0
01/02:00pm 34.7 38.3 23.1 51 8.0 NE 9 11 5 6 1008.9 1008.7 0.0
01/01:30pm 34.0 37.2 23.1 53 7.6 ENE 11 15 6 8 1009.2 1009.1 0.0
01/01:00pm 33.5 37.7 23.2 54 7.1 E 6 11 3 6 1009.7 1009.6 0.0
01/12:30pm 33.2 37.0 23.5 56 6.7 NE 9 17 5 9 1010.1 1010.0 0.0
01/12:00pm 33.0 37.1 23.3 56 6.7 ENE 7 15 4 8 1010.6 1010.5 0.0
01/11:30am 32.4 35.9 23.6 59 6.1 ENE 11 17 6 9 1010.9 1010.8 0.0
01/11:00am 31.8 35.5 23.9 63 5.5 E 11 17 6 9 1011.2 1011.1 0.0
01/10:30am 31.0 35.9 24.6 68 4.5 ENE 7 11 4 6 1011.3 1011.2 0.0
01/10:00am 30.2 35.2 24.8 73 3.8 ENE 7 11 4 6 1011.5 1011.4 0.0
01/09:30am 28.9 34.7 25.1 80 2.7 E 4 6 2 3 1011.7 1011.6 0.0
01/09:00am 27.6 34.3 25.4 88 1.5 CALM 0 2 0 1 1011.7 1011.5 19.0
01/08:30am 26.9 33.6 26.0 95 0.6 ESE 2 4 1 2 1011.7 1011.5 19.0
01/08:00am 26.2 32.3 25.7 97 0.4 SE 4 6 2 3 1011.4 1011.2 19.0
01/07:30am 25.9 32.6 25.4 97 0.4 CALM 0 0 0 0 1011.3 1011.1 19.0
01/07:00am 25.7 31.5 25.2 97 0.3 ESE 4 4 2 2 1011.0 1010.8 19.0
01/06:30am 25.5 32.0 25.0 97 0.3 CALM 0 0 0 0 1010.8 1010.6 19.0
01/06:00am 25.4 31.8 24.9 97 0.3 CALM 0 0 0 0 1010.5 1010.3 19.0
01/05:30am 25.3 31.6 24.8 97 0.3 CALM 0 0 0 0 1010.4 1010.2 19.0
01/05:00am 25.2 31.2 24.9 98 0.2 ENE 2 2 1 1 1010.4 1010.2 19.0
01/04:30am 25.0 30.9 24.7 98 0.2 NNE 2 4 1 2 1010.2 1010.0 18.8
01/04:00am 24.9 30.6 24.4 97 0.3 NW 2 2 1 1 1009.8 1009.6 18.8
01/03:30am 24.8 30.2 24.5 98 0.2 NW 4 4 2 2 1010.1 1009.9 18.8
01/03:00am 24.7 30.4 24.4 98 0.2 S 2 4 1 2 1010.1 1009.9 18.8
01/02:30am 24.3 28.9 23.8 97 0.3 ESE 6 7 3 4 1010.7 1010.5 14.6
01/02:00am 24.0 25.8 23.3 96 0.5 ENE 19 33 10 18 1011.1 1010.9 11.2
01/01:30am 27.0 32.0 24.8 88 1.5 ESE 7 17 4 9 1010.9 1010.7 0.2
01/01:00am 26.9 33.2 24.7 88 1.5 CALM 0 0 0 0 1010.4 1010.2 0.2
01/12:30am 26.9 33.2 24.7 88 1.5 CALM 0 0 0 0 1010.6 1010.4 0.2
01/12:00am 26.7 32.2 24.7 89 1.4 ENE 4 6 2 3 1011.0 1010.8 0.2
 
Date/Time
CST
Tmp

°C
App
Tmp
°C
Dew
Point
°C
Rel
Hum
%
Delta-T

°C
Wind Press
QNH
hPa
Press
MSL
hPa
Rain
since
9 am
mm
Dir
 
Spd
km/h
Gust
km/h
Spd
kts
Gust
kts
30/11:30pm 27.0 33.2 24.6 87 1.7 CALM 0 0 0 0 1010.8 1010.6 0.2
30/11:00pm 27.1 33.3 24.6 86 1.7 CALM 0 0 0 0 1010.6 1010.4 0.2
30/10:30pm 27.4 33.7 24.7 85 1.9 CALM 0 0 0 0 1010.8 1010.6 0.2
30/10:00pm 27.5 33.7 24.6 84 2.0 CALM 0 0 0 0 1010.7 1010.5 0.2
30/09:30pm 28.3 34.4 24.5 80 2.6 CALM 0 0 0 0 1010.7 1010.5 0.2
30/09:00pm 28.5 33.9 24.5 79 2.8 W 4 6 2 3 1010.3 1010.1 0.2
30/08:30pm 28.9 34.3 24.5 77 3.1 W 4 4 2 2 1010.3 1010.1 0.2
30/08:00pm 29.1 34.3 24.2 75 3.4 NW 4 6 2 3 1010.0 1009.8 0.2
30/07:30pm 29.4 34.7 24.3 74 3.6 WNW 4 7 2 4 1009.7 1009.5 0.2
30/07:00pm 29.9 34.8 24.3 72 3.9 NNW 6 9 3 5 1009.4 1009.2 0.2
30/06:30pm 30.6 35.4 24.5 70 4.3 NNW 7 11 4 6 1008.8 1008.6 0.2
30/06:00pm 31.6 36.0 24.5 66 5.0 NW 9 15 5 8 1008.4 1008.2 0.2
30/05:30pm 32.2 36.3 24.0 62 5.7 NW 9 15 5 8 1007.9 1007.7 0.2
30/05:00pm 32.7 37.0 24.2 61 5.9 NW 9 15 5 8 1007.6 1007.4 0.2
30/04:30pm 34.7 37.6 20.6 43 9.5 NE 6 9 3 5 1007.4 1007.2 0.2
30/04:00pm 35.2 37.2 19.9 40 10.2 ENE 9 13 5 7 1007.4 1007.2 0.2
30/03:30pm 35.4 37.6 19.3 38 10.7 ENE 6 13 3 7 1007.6 1007.4 0.2
30/03:00pm 35.6 37.4 19.5 38 10.7 ENE 9 15 5 8 1007.9 1007.7 0.2
30/02:30pm 35.9 37.6 19.3 37 11.0 E 9 17 5 9 1008.3 1008.1 0.2
30/02:00pm 36.3 38.2 19.7 37 11.1 ESE 9 15 5 8 1008.8 1008.6 0.2
30/01:30pm 34.9 38.1 21.2 45 9.3 SSE 6 11 3 6 1009.5 1009.3 0.2
30/01:00pm 34.7 37.8 21.4 46 9.0 ENE 7 15 4 8 1010.2 1010.0 0.2

Latest Capital City Observations: Canberra | Sydney | Melbourne | Brisbane | Adelaide | Perth | Hobart | Darwin

Other Formats:

Comma delimited format used in spreadsheet applications
http://www.bom.gov.au/fwo/IDD60901/IDD60901.94105.axf

JavaScript Object Notation format (JSON) in row-major order
http://www.bom.gov.au/fwo/IDD60901/IDD60901.94105.json